Time;durP1;ratioP1;P1;durP2;ratioP2;P2;SDS_P1;SDS_P2;PMS_P1;PMS_P2;Temp;Humidity;BMP_temperature;BMP_pressure;BME280_temperature;BME280_humidity;BME280_pressure;Samples;Min_cycle;Max_cycle;Signal;HPM_P1;HPM_P2
2021/12/27 00:00:35;;;;;;;28.77;15.70;;;;;;;;;;5055062;28;20559;-65
2021/12/27 00:03:02;;;;;;;26.90;14.82;;;;;;;;;;5055122;28;20041;-65
2021/12/27 00:05:28;;;;;;;29.23;14.73;;;;;;;;;;5055298;28;20041;-65
2021/12/27 00:07:54;;;;;;;30.27;16.50;;;;;;;;;;5054464;28;20041;-64
2021/12/27 00:10:21;;;;;;;29.67;15.52;;;;;;;;;;5054718;28;20045;-65
2021/12/27 00:12:48;;;;;;;31.70;17.00;;;;;;;;;;5054822;28;20037;-65
2021/12/27 00:15:14;;;;;;;28.88;16.48;;;;;;;;;;5054704;28;20052;-65
2021/12/27 00:17:40;;;;;;;28.17;15.23;;;;;;;;;;5055385;28;20060;-65
2021/12/27 00:20:07;;;;;;;29.98;15.35;;;;;;;;;;5054150;28;20036;-65
2021/12/27 00:22:33;;;;;;;32.15;15.60;;;;;;;;;;5053171;28;20398;-65
2021/12/27 00:24:59;;;;;;;29.77;15.93;;;;;;;;;;5054879;28;20037;-64
2021/12/27 00:27:25;;;;;;;27.67;15.73;;;;;;;;;;5055274;28;20043;-65
2021/12/27 00:29:52;;;;;;;28.08;15.98;;;;;;;;;;5054410;28;20040;-65
2021/12/27 00:32:18;;;;;;;31.92;16.55;;;;;;;;;;5054765;28;20040;-65
2021/12/27 00:34:44;;;;;;;31.80;17.05;;;;;;;;;;5053512;28;20083;-65
2021/12/27 00:37:10;;;;;;;29.77;16.33;;;;;;;;;;5054986;28;20449;-65
2021/12/27 00:39:37;;;;;;;26.70;16.20;;;;;;;;;;5054602;28;20033;-65
2021/12/27 00:42:03;;;;;;;29.85;16.50;;;;;;;;;;5054175;28;20402;-65
2021/12/27 00:44:29;;;;;;;31.05;16.00;;;;;;;;;;5052636;28;20036;-65
2021/12/27 00:46:55;;;;;;;27.13;15.48;;;;;;;;;;5054446;28;20037;-65
2021/12/27 00:49:22;;;;;;;34.08;16.80;;;;;;;;;;5054109;28;20546;-65
2021/12/27 00:51:48;;;;;;;30.13;16.30;;;;;;;;;;5054271;28;20037;-65
2021/12/27 00:54:15;;;;;;;26.80;15.43;;;;;;;;;;5053842;28;20502;-65
2021/12/27 00:56:41;;;;;;;31.70;16.92;;;;;;;;;;5053925;28;20478;-65
2021/12/27 00:59:07;;;;;;;29.85;15.77;;;;;;;;;;5054336;28;20040;-66
2021/12/27 01:01:33;;;;;;;28.60;16.15;;;;;;;;;;5054298;28;20048;-65
2021/12/27 01:03:59;;;;;;;30.40;17.50;;;;;;;;;;5045650;28;20045;-65
2021/12/27 01:06:25;;;;;;;31.67;16.50;;;;;;;;;;5054209;28;20080;-65
2021/12/27 01:08:52;;;;;;;30.95;16.15;;;;;;;;;;5054514;28;20059;-65
2021/12/27 01:11:27;;;;;;;33.03;17.13;;;;;;;;;;5052924;28;20124;-65
2021/12/27 01:16:50;;;;;;;28.42;15.98;;;;;;;;;;5012947;28;20045;-65
2021/12/27 01:19:16;;;;;;;30.75;17.08;;;;;;;;;;5054202;28;20437;-65
2021/12/27 01:21:42;;;;;;;29.25;16.27;;;;;;;;;;5054141;28;20063;-65
2021/12/27 01:24:08;;;;;;;32.55;16.77;;;;;;;;;;5053688;28;20045;-65
2021/12/27 01:26:34;;;;;;;32.50;17.13;;;;;;;;;;5052852;28;20052;-65
2021/12/27 01:29:00;;;;;;;30.75;16.40;;;;;;;;;;5050779;28;20052;-65
2021/12/27 01:31:27;;;;;;;30.98;17.30;;;;;;;;;;5053412;28;20045;-65
2021/12/27 01:33:54;;;;;;;35.78;17.58;;;;;;;;;;5053459;28;20055;-65
2021/12/27 01:36:19;;;;;;;34.50;18.50;;;;;;;;;;5053302;28;20076;-65
2021/12/27 01:38:47;;;;;;;29.42;17.40;;;;;;;;;;5053525;28;20072;-65
2021/12/27 01:41:15;;;;;;;32.47;17.30;;;;;;;;;;5053121;28;20506;-65
2021/12/27 01:43:42;;;;;;;33.55;17.98;;;;;;;;;;5053126;28;20525;-65
2021/12/27 01:46:10;;;;;;;34.03;16.83;;;;;;;;;;5053410;28;20044;-65
2021/12/27 01:48:38;;;;;;;32.15;17.10;;;;;;;;;;5053034;28;20037;-65
2021/12/27 01:51:09;;;;;;;29.95;16.98;;;;;;;;;;5053655;28;20044;-65
2021/12/27 01:53:36;;;;;;;32.53;17.27;;;;;;;;;;5053135;28;20041;-65
2021/12/27 01:56:03;;;;;;;31.88;17.55;;;;;;;;;;5052405;28;20025;-65
2021/12/27 01:58:30;;;;;;;30.15;17.40;;;;;;;;;;5053323;28;20041;-65
2021/12/27 02:00:57;;;;;;;33.22;17.38;;;;;;;;;;5053323;28;20044;-65
2021/12/27 02:03:25;;;;;;;28.75;17.33;;;;;;;;;;5053176;28;20811;-65
2021/12/27 02:05:51;;;;;;;33.50;19.10;;;;;;;;;;5052710;28;20044;-65
2021/12/27 02:08:17;;;;;;;33.33;18.05;;;;;;;;;;5053072;28;20032;-65
2021/12/27 02:10:44;;;;;;;35.00;18.50;;;;;;;;;;5052074;28;20045;-65
2021/12/27 02:13:11;;;;;;;34.70;18.55;;;;;;;;;;5052872;28;20044;-65
2021/12/27 02:15:37;;;;;;;34.20;19.48;;;;;;;;;;5052719;28;20037;-65
2021/12/27 02:18:03;;;;;;;32.00;17.40;;;;;;;;;;5052974;28;20037;-65
2021/12/27 02:20:31;;;;;;;31.63;17.45;;;;;;;;;;5052327;28;20048;-65
2021/12/27 02:23:01;;;;;;;33.42;17.95;;;;;;;;;;5051705;28;20037;-65
2021/12/27 02:25:28;;;;;;;34.22;19.02;;;;;;;;;;5051700;28;20069;-65
2021/12/27 02:27:56;;;;;;;36.78;18.10;;;;;;;;;;5052836;28;20430;-65
2021/12/27 02:30:22;;;;;;;33.17;18.08;;;;;;;;;;5046648;28;20044;-65
2021/12/27 02:32:50;;;;;;;32.15;18.75;;;;;;;;;;5052718;28;20037;-65
2021/12/27 02:35:17;;;;;;;35.25;18.35;;;;;;;;;;5052084;28;20037;-65
2021/12/27 02:37:43;;;;;;;35.78;18.80;;;;;;;;;;5051928;28;20170;-65
2021/12/27 02:40:10;;;;;;;35.88;18.60;;;;;;;;;;5052391;28;20036;-65
2021/12/27 02:42:51;;;;;;;34.85;18.00;;;;;;;;;;5052025;28;20068;-65
2021/12/27 02:45:17;;;;;;;33.13;17.55;;;;;;;;;;5051862;28;20045;-65
2021/12/27 02:47:43;;;;;;;31.70;17.75;;;;;;;;;;5052330;28;20052;-65
2021/12/27 02:50:10;;;;;;;31.50;18.10;;;;;;;;;;5051960;28;20195;-65
2021/12/27 02:52:36;;;;;;;34.53;18.20;;;;;;;;;;5052128;28;20044;-65
2021/12/27 02:55:02;;;;;;;32.30;17.15;;;;;;;;;;5051452;28;20402;-65
2021/12/27 02:57:28;;;;;;;35.72;18.80;;;;;;;;;;5044181;28;20045;-66
2021/12/27 02:59:57;;;;;;;32.92;17.77;;;;;;;;;;5049336;28;20046;-65
2021/12/27 03:02:22;;;;;;;37.13;19.33;;;;;;;;;;5042794;28;20542;-65
2021/12/27 03:04:48;;;;;;;35.25;18.52;;;;;;;;;;5043718;28;20043;-66
2021/12/27 03:07:14;;;;;;;33.47;18.73;;;;;;;;;;5044421;28;20065;-66
2021/12/27 03:09:40;;;;;;;30.05;16.90;;;;;;;;;;5048274;28;20040;-66
2021/12/27 03:12:12;;;;;;;34.08;18.70;;;;;;;;;;5050902;28;20490;-66
2021/12/27 03:14:38;;;;;;;32.35;17.85;;;;;;;;;;5051142;28;20036;-65
2021/12/27 03:17:05;;;;;;;33.28;19.15;;;;;;;;;;5048781;28;20033;-65
2021/12/27 03:19:30;;;;;;;32.13;17.35;;;;;;;;;;5043508;28;20044;-65
2021/12/27 03:21:56;;;;;;;33.80;19.65;;;;;;;;;;5042907;28;20071;-66
2021/12/27 03:24:22;;;;;;;37.05;19.08;;;;;;;;;;5051421;28;20560;-66
2021/12/27 03:26:49;;;;;;;32.70;18.40;;;;;;;;;;5050984;28;20568;-66
2021/12/27 03:29:16;;;;;;;34.92;18.58;;;;;;;;;;5051469;28;20033;-66
2021/12/27 03:31:42;;;;;;;35.08;18.42;;;;;;;;;;5051594;28;20124;-65
2021/12/27 03:34:08;;;;;;;35.80;18.88;;;;;;;;;;5050771;28;20080;-66
2021/12/27 03:36:39;;;;;;;35.33;19.23;;;;;;;;;;5050575;28;20506;-66
2021/12/27 03:39:10;;;;;;;31.98;18.58;;;;;;;;;;5051671;28;20037;-66
2021/12/27 03:41:36;;;;;;;34.42;18.98;;;;;;;;;;5051255;28;20124;-66
2021/12/27 03:44:02;;;;;;;35.13;18.83;;;;;;;;;;5051248;28;20118;-66
2021/12/27 03:46:28;;;;;;;35.10;19.67;;;;;;;;;;5050970;28;20037;-66
2021/12/27 03:48:54;;;;;;;35.17;19.08;;;;;;;;;;5051330;28;20044;-65
2021/12/27 03:51:20;;;;;;;35.33;19.02;;;;;;;;;;5051402;28;20116;-65
2021/12/27 03:53:46;;;;;;;35.42;18.80;;;;;;;;;;5050813;28;20588;-66
2021/12/27 03:56:12;;;;;;;34.63;18.90;;;;;;;;;;5051529;28;20041;-65
2021/12/27 03:58:49;;;;;;;37.45;19.02;;;;;;;;;;5051613;28;20041;-65
2021/12/27 04:01:16;;;;;;;33.28;19.08;;;;;;;;;;5051274;28;20045;-66
2021/12/27 04:03:47;;;;;;;32.97;18.63;;;;;;;;;;5051036;28;20052;-66
2021/12/27 04:06:13;;;;;;;38.45;19.75;;;;;;;;;;5050051;28;20490;-66
2021/12/27 04:08:39;;;;;;;34.90;18.40;;;;;;;;;;5051429;28;20491;-66
2021/12/27 04:11:05;;;;;;;36.28;20.65;;;;;;;;;;5051085;28;20075;-65
2021/12/27 04:13:32;;;;;;;37.45;19.83;;;;;;;;;;5050938;28;20033;-66
2021/12/27 04:15:59;;;;;;;36.97;19.30;;;;;;;;;;5050760;28;20037;-65
2021/12/27 04:18:25;;;;;;;34.50;19.23;;;;;;;;;;5051176;28;20041;-66
2021/12/27 04:20:51;;;;;;;33.92;18.73;;;;;;;;;;5051006;28;20045;-65
2021/12/27 04:23:17;;;;;;;35.20;18.63;;;;;;;;;;5050863;28;20098;-66
2021/12/27 04:25:43;;;;;;;34.42;19.45;;;;;;;;;;5050616;28;20037;-65
2021/12/27 04:28:09;;;;;;;34.58;18.80;;;;;;;;;;5050424;28;20037;-66
2021/12/27 04:30:35;;;;;;;34.60;19.65;;;;;;;;;;5051008;28;20065;-66
2021/12/27 04:33:01;;;;;;;33.95;19.25;;;;;;;;;;5057321;22;20128;-65
2021/12/27 04:35:27;;;;;;;35.90;19.65;;;;;;;;;;5008843;28;20505;-65
2021/12/27 04:37:53;;;;;;;33.70;19.38;;;;;;;;;;5021552;28;20045;-64
2021/12/27 04:40:20;;;;;;;36.70;20.45;;;;;;;;;;5031813;28;20047;-65
2021/12/27 04:42:48;;;;;;;31.70;19.80;;;;;;;;;;5016585;28;20046;-65
2021/12/27 04:45:15;;;;;;;32.40;18.40;;;;;;;;;;5002650;28;20038;-65
2021/12/27 04:47:41;;;;;;;37.05;19.10;;;;;;;;;;5015051;28;20053;-65
2021/12/27 04:50:09;;;;;;;35.00;19.42;;;;;;;;;;5016162;28;20064;-64
2021/12/27 04:52:35;;;;;;;36.25;19.20;;;;;;;;;;5027489;28;20435;-65
2021/12/27 04:55:02;;;;;;;38.03;20.42;;;;;;;;;;5018108;28;20040;-64
2021/12/27 04:57:28;;;;;;;35.30;19.30;;;;;;;;;;5026502;28;20505;-65
2021/12/27 04:59:54;;;;;;;34.15;19.42;;;;;;;;;;5014304;28;20491;-64
2021/12/27 05:02:20;;;;;;;37.78;18.67;;;;;;;;;;5013090;28;20048;-64
2021/12/27 05:04:46;;;;;;;37.00;19.05;;;;;;;;;;5013726;28;20041;-64
2021/12/27 05:07:12;;;;;;;48.58;20.27;;;;;;;;;;5010826;28;20034;-65
2021/12/27 05:09:38;;;;;;;33.88;18.15;;;;;;;;;;5015039;28;20030;-65
2021/12/27 05:12:04;;;;;;;35.38;20.52;;;;;;;;;;4997334;28;20072;-65
2021/12/27 05:14:30;;;;;;;35.90;19.08;;;;;;;;;;5016582;28;20444;-65
2021/12/27 05:16:56;;;;;;;34.00;19.75;;;;;;;;;;5014164;28;20121;-65
2021/12/27 05:19:22;;;;;;;34.72;18.55;;;;;;;;;;4995012;28;20506;-65
2021/12/27 05:21:48;;;;;;;34.25;19.38;;;;;;;;;;4996541;28;20045;-65
2021/12/27 05:24:14;;;;;;;37.00;19.20;;;;;;;;;;5024711;28;20044;-65
2021/12/27 05:26:40;;;;;;;39.35;20.83;;;;;;;;;;5013601;28;20033;-65
2021/12/27 05:29:06;;;;;;;39.97;20.52;;;;;;;;;;5014270;28;20502;-65
2021/12/27 05:31:32;;;;;;;36.47;19.95;;;;;;;;;;5014312;28;20142;-65
2021/12/27 05:33:59;;;;;;;36.45;19.38;;;;;;;;;;5026920;28;20045;-65
2021/12/27 05:36:25;;;;;;;37.88;20.73;;;;;;;;;;5013646;28;20050;-65
2021/12/27 05:38:51;;;;;;;39.88;20.13;;;;;;;;;;5013689;28;20034;-65
2021/12/27 05:41:17;;;;;;;36.35;20.48;;;;;;;;;;4992235;28;20092;-65
2021/12/27 05:43:43;;;;;;;34.92;19.67;;;;;;;;;;5002916;28;20042;-66
2021/12/27 05:46:09;;;;;;;38.85;20.25;;;;;;;;;;5017466;28;20042;-65
2021/12/27 05:48:35;;;;;;;36.72;20.23;;;;;;;;;;5009875;28;20037;-65
2021/12/27 05:51:01;;;;;;;39.15;20.90;;;;;;;;;;5012770;28;20555;-65
2021/12/27 05:53:27;;;;;;;41.22;20.92;;;;;;;;;;5010764;28;20034;-65
2021/12/27 05:55:53;;;;;;;36.03;21.35;;;;;;;;;;5006377;28;20120;-65
2021/12/27 05:58:19;;;;;;;36.33;19.98;;;;;;;;;;5007269;28;20104;-66
2021/12/27 06:00:45;;;;;;;36.38;20.52;;;;;;;;;;5012037;28;20057;-66
2021/12/27 06:03:11;;;;;;;37.83;20.50;;;;;;;;;;5011551;28;20411;-65
2021/12/27 06:05:37;;;;;;;42.17;22.30;;;;;;;;;;5011908;28;20053;-65
2021/12/27 06:08:03;;;;;;;39.33;21.20;;;;;;;;;;4995126;28;20166;-65
2021/12/27 06:10:29;;;;;;;40.35;21.38;;;;;;;;;;5012646;28;20084;-65
2021/12/27 06:12:55;;;;;;;42.15;22.70;;;;;;;;;;5012560;28;20514;-65
2021/12/27 06:15:21;;;;;;;37.78;20.20;;;;;;;;;;5011674;28;20038;-65
2021/12/27 06:17:47;;;;;;;45.30;23.13;;;;;;;;;;5009710;28;20034;-65
2021/12/27 06:20:14;;;;;;;36.65;21.25;;;;;;;;;;5004750;28;20041;-65
2021/12/27 06:22:43;;;;;;;38.50;22.13;;;;;;;;;;5002695;28;20081;-65
2021/12/27 06:25:09;;;;;;;45.17;24.70;;;;;;;;;;5003945;28;20087;-65
2021/12/27 06:27:35;;;;;;;49.80;24.00;;;;;;;;;;5003402;28;20116;-65
2021/12/27 06:30:01;;;;;;;42.45;23.40;;;;;;;;;;5003924;28;21318;-65
2021/12/27 06:32:27;;;;;;;48.38;24.10;;;;;;;;;;5003179;28;20044;-65
2021/12/27 06:34:53;;;;;;;45.28;23.15;;;;;;;;;;5002922;28;20034;-66
2021/12/27 06:37:20;;;;;;;37.92;20.67;;;;;;;;;;4977249;28;20054;-65
2021/12/27 06:39:46;;;;;;;42.38;21.42;;;;;;;;;;4973187;28;20117;-65
2021/12/27 06:42:11;;;;;;;43.75;20.75;;;;;;;;;;4991389;28;20586;-65
2021/12/27 06:44:38;;;;;;;39.97;21.13;;;;;;;;;;4991999;28;20042;-66
2021/12/27 06:47:04;;;;;;;39.50;21.15;;;;;;;;;;4983339;28;20755;-65
2021/12/27 06:49:35;;;;;;;40.33;20.73;;;;;;;;;;5002216;28;20407;-65
2021/12/27 06:52:01;;;;;;;37.83;21.15;;;;;;;;;;4985430;28;20080;-65
2021/12/27 06:54:27;;;;;;;44.13;21.30;;;;;;;;;;4986206;28;20037;-65
2021/12/27 06:56:54;;;;;;;39.97;21.17;;;;;;;;;;5003367;28;20049;-65
2021/12/27 06:59:20;;;;;;;38.08;20.98;;;;;;;;;;5002908;28;20096;-65
2021/12/27 07:01:46;;;;;;;40.35;21.33;;;;;;;;;;4986506;28;20125;-65
2021/12/27 07:04:12;;;;;;;38.70;20.08;;;;;;;;;;5003445;28;20113;-65
2021/12/27 07:06:38;;;;;;;35.33;20.05;;;;;;;;;;5000613;28;20060;-66
2021/12/27 07:09:05;;;;;;;44.53;21.35;;;;;;;;;;5003667;28;20061;-65
2021/12/27 07:11:32;;;;;;;37.80;20.13;;;;;;;;;;5003416;28;20038;-65
2021/12/27 07:13:58;;;;;;;60.88;22.42;;;;;;;;;;4986581;28;20054;-65
2021/12/27 07:16:25;;;;;;;46.90;24.25;;;;;;;;;;5009721;28;20048;-65
2021/12/27 07:18:51;;;;;;;43.42;21.67;;;;;;;;;;5008601;28;20065;-65
2021/12/27 07:21:17;;;;;;;84.93;30.90;;;;;;;;;;5007431;28;20037;-65
2021/12/27 07:23:44;;;;;;;76.22;37.15;;;;;;;;;;5010625;28;20139;-65
2021/12/27 07:26:10;;;;;;;42.17;22.27;;;;;;;;;;5008785;28;20507;-65
2021/12/27 07:28:36;;;;;;;50.85;25.88;;;;;;;;;;5010692;28;20153;-65
2021/12/27 07:31:02;;;;;;;47.85;23.98;;;;;;;;;;5010546;28;20384;-66
2021/12/27 07:33:28;;;;;;;42.15;21.70;;;;;;;;;;5011642;28;20038;-66
2021/12/27 07:35:54;;;;;;;50.35;26.50;;;;;;;;;;5011248;28;20495;-66
2021/12/27 07:38:20;;;;;;;65.25;26.73;;;;;;;;;;5009131;28;20289;-65
2021/12/27 07:40:46;;;;;;;51.03;22.67;;;;;;;;;;5002734;28;20057;-65
2021/12/27 07:43:12;;;;;;;47.88;22.50;;;;;;;;;;5007553;28;20034;-66
2021/12/27 07:45:38;;;;;;;49.42;22.13;;;;;;;;;;5009714;28;20073;-66
2021/12/27 07:48:07;;;;;;;44.90;21.42;;;;;;;;;;5008064;28;20037;-66
2021/12/27 07:50:33;;;;;;;42.00;21.50;;;;;;;;;;5006579;28;20050;-66
2021/12/27 07:52:59;;;;;;;45.88;21.65;;;;;;;;;;5009090;28;20038;-66
2021/12/27 07:55:27;;;;;;;43.53;21.83;;;;;;;;;;4996845;28;20155;-66
2021/12/27 07:57:53;;;;;;;45.58;21.23;;;;;;;;;;5011085;28;20042;-66
2021/12/27 08:00:19;;;;;;;45.25;21.50;;;;;;;;;;5004426;28;20056;-66
2021/12/27 08:02:45;;;;;;;44.50;21.05;;;;;;;;;;5009256;28;20050;-66
2021/12/27 08:05:11;;;;;;;40.67;20.95;;;;;;;;;;4996946;28;20046;-66
2021/12/27 08:07:38;;;;;;;45.03;21.52;;;;;;;;;;5008296;28;20180;-66
2021/12/27 08:10:04;;;;;;;41.20;20.60;;;;;;;;;;5004007;28;20161;-66
2021/12/27 08:12:30;;;;;;;48.92;22.58;;;;;;;;;;5009493;28;20037;-66
2021/12/27 08:14:56;;;;;;;46.08;21.30;;;;;;;;;;4985257;28;20029;-66
2021/12/27 08:17:22;;;;;;;47.30;22.20;;;;;;;;;;5000098;28;20578;-67
2021/12/27 08:19:48;;;;;;;50.38;22.58;;;;;;;;;;5010202;28;20037;-67
2021/12/27 08:22:17;;;;;;;62.67;25.33;;;;;;;;;;5005648;28;20042;-66
2021/12/27 08:24:43;;;;;;;49.17;21.75;;;;;;;;;;5007628;28;20034;-66
2021/12/27 08:27:09;;;;;;;45.30;21.55;;;;;;;;;;5013824;28;20033;-66
2021/12/27 08:29:36;;;;;;;55.58;23.17;;;;;;;;;;5014250;28;20121;-66
2021/12/27 08:32:02;;;;;;;51.13;21.45;;;;;;;;;;5010823;28;20038;-67
2021/12/27 08:34:29;;;;;;;50.65;22.60;;;;;;;;;;4991808;28;20457;-65
2021/12/27 08:36:55;;;;;;;47.78;22.20;;;;;;;;;;5013716;28;20056;-66
2021/12/27 08:39:21;;;;;;;50.55;21.90;;;;;;;;;;5014021;28;20037;-66
2021/12/27 08:41:47;;;;;;;53.50;22.88;;;;;;;;;;5013795;28;20100;-66
2021/12/27 08:44:13;;;;;;;56.35;23.17;;;;;;;;;;5011405;28;20491;-66
2021/12/27 08:46:40;;;;;;;56.35;24.02;;;;;;;;;;5013561;28;20036;-66
2021/12/27 08:49:06;;;;;;;56.45;23.13;;;;;;;;;;5011249;28;20088;-66
2021/12/27 08:51:33;;;;;;;53.60;22.10;;;;;;;;;;5014467;28;20039;-66
2021/12/27 08:53:59;;;;;;;60.78;22.63;;;;;;;;;;5010681;28;20069;-66
2021/12/27 08:56:25;;;;;;;59.20;23.35;;;;;;;;;;5012774;28;20042;-66
2021/12/27 08:58:51;;;;;;;61.10;23.52;;;;;;;;;;5011039;28;20034;-66
2021/12/27 09:01:17;;;;;;;58.33;24.20;;;;;;;;;;5013288;28;20125;-66
2021/12/27 09:03:43;;;;;;;59.35;23.25;;;;;;;;;;5012144;28;20068;-66
2021/12/27 09:06:10;;;;;;;64.63;23.15;;;;;;;;;;5011108;28;20125;-65
2021/12/27 09:08:35;;;;;;;64.07;24.00;;;;;;;;;;4998433;28;20039;-65
2021/12/27 09:11:01;;;;;;;62.60;24.17;;;;;;;;;;5003346;28;20042;-65
2021/12/27 09:13:28;;;;;;;66.88;25.40;;;;;;;;;;5014356;28;20042;-65
2021/12/27 09:15:54;;;;;;;69.60;25.58;;;;;;;;;;4996109;28;20076;-65
2021/12/27 09:18:21;;;;;;;74.18;25.30;;;;;;;;;;5014627;28;20042;-65
2021/12/27 09:20:46;;;;;;;66.65;25.38;;;;;;;;;;5014271;28;20388;-66
2021/12/27 09:23:12;;;;;;;69.63;24.98;;;;;;;;;;5014262;28;20092;-65
2021/12/27 09:25:38;;;;;;;74.35;24.30;;;;;;;;;;5014058;28;20084;-65
2021/12/27 09:28:04;;;;;;;72.63;26.55;;;;;;;;;;5014070;28;20515;-65
2021/12/27 09:30:30;;;;;;;73.32;23.83;;;;;;;;;;5014258;28;20484;-65
2021/12/27 09:32:57;;;;;;;72.18;25.13;;;;;;;;;;5013610;28;20042;-65
2021/12/27 09:35:23;;;;;;;94.75;27.10;;;;;;;;;;5014173;28;20044;-65
2021/12/27 09:37:49;;;;;;;79.90;27.00;;;;;;;;;;5013569;28;20072;-65
2021/12/27 09:40:16;;;;;;;72.25;25.88;;;;;;;;;;5014018;28;20065;-66
2021/12/27 09:42:42;;;;;;;80.18;26.92;;;;;;;;;;5014093;28;20080;-65
2021/12/27 09:45:09;;;;;;;81.70;27.35;;;;;;;;;;5013920;28;20050;-65
2021/12/27 09:47:35;;;;;;;81.28;26.73;;;;;;;;;;5013051;28;20042;-65
2021/12/27 09:50:02;;;;;;;80.70;26.35;;;;;;;;;;5013650;28;20053;-65
2021/12/27 09:52:28;;;;;;;86.72;27.73;;;;;;;;;;5013581;28;20306;-65
2021/12/27 09:54:55;;;;;;;89.97;27.95;;;;;;;;;;5013604;28;20046;-65
2021/12/27 09:57:20;;;;;;;103.25;28.92;;;;;;;;;;5013782;28;20175;-65
2021/12/27 09:59:46;;;;;;;98.53;30.00;;;;;;;;;;4995884;28;20092;-65
2021/12/27 10:02:13;;;;;;;79.65;26.55;;;;;;;;;;5013717;28;20045;-65
2021/12/27 10:04:39;;;;;;;85.25;28.13;;;;;;;;;;5013354;28;20396;-65
2021/12/27 10:07:05;;;;;;;106.38;30.13;;;;;;;;;;5012607;28;20077;-65
2021/12/27 10:09:33;;;;;;;94.63;29.23;;;;;;;;;;5013649;28;20135;-65
2021/12/27 10:12:00;;;;;;;101.53;29.77;;;;;;;;;;5013621;28;20404;-65
2021/12/27 10:14:26;;;;;;;94.40;27.92;;;;;;;;;;5013512;28;20056;-65
2021/12/27 10:16:53;;;;;;;91.68;29.23;;;;;;;;;;4995495;28;20042;-65
2021/12/27 10:19:20;;;;;;;100.35;28.83;;;;;;;;;;5013307;28;20038;-65
2021/12/27 10:21:48;;;;;;;95.45;30.20;;;;;;;;;;5012809;28;20042;-65
2021/12/27 10:24:21;;;;;;;100.45;30.73;;;;;;;;;;5013328;28;20092;-65
2021/12/27 10:26:49;;;;;;;109.20;29.75;;;;;;;;;;5012577;28;20037;-65
2021/12/27 10:29:15;;;;;;;113.68;31.60;;;;;;;;;;5012274;28;20037;-65
2021/12/27 10:31:59;;;;;;;119.13;31.85;;;;;;;;;;5013055;28;20041;-65
2021/12/27 10:34:33;;;;;;;110.72;30.55;;;;;;;;;;5042863;22;20042;-67
2021/12/27 10:37:01;;;;;;;124.18;31.35;;;;;;;;;;5031953;28;20037;-67
2021/12/27 10:39:44;;;;;;;102.43;29.40;;;;;;;;;;5033079;28;20041;-68
2021/12/27 10:42:11;;;;;;;120.57;31.42;;;;;;;;;;4998472;28;20052;-68
2021/12/27 10:44:37;;;;;;;111.68;31.27;;;;;;;;;;5015498;28;20050;-67
2021/12/27 10:47:04;;;;;;;121.18;31.00;;;;;;;;;;5012851;28;20053;-67
2021/12/27 10:49:44;;;;;;;106.97;29.20;;;;;;;;;;5013027;28;20117;-67
2021/12/27 10:52:10;;;;;;;116.40;31.17;;;;;;;;;;5012638;28;20469;-67
2021/12/27 10:54:37;;;;;;;107.82;31.30;;;;;;;;;;5013454;28;20077;-68
2021/12/27 10:57:03;;;;;;;115.15;33.15;;;;;;;;;;5012618;28;20113;-68
2021/12/27 10:59:29;;;;;;;116.13;30.38;;;;;;;;;;5012685;28;20043;-67
2021/12/27 11:01:56;;;;;;;122.60;32.35;;;;;;;;;;5012154;28;20454;-68
2021/12/27 11:04:22;;;;;;;122.53;32.35;;;;;;;;;;5018325;28;20045;-68
2021/12/27 11:06:54;;;;;;;107.22;30.75;;;;;;;;;;5011792;28;20049;-68
2021/12/27 11:09:20;;;;;;;120.53;30.40;;;;;;;;;;5012296;28;20423;-68
2021/12/27 11:11:46;;;;;;;108.25;30.42;;;;;;;;;;5014426;28;20542;-68
2021/12/27 11:14:12;;;;;;;121.78;31.92;;;;;;;;;;5015041;28;20065;-68
2021/12/27 11:16:38;;;;;;;109.85;29.75;;;;;;;;;;5011674;28;20040;-68
2021/12/27 11:19:04;;;;;;;122.88;29.98;;;;;;;;;;5012324;28;20046;-67
2021/12/27 11:21:35;;;;;;;107.70;31.30;;;;;;;;;;5012246;28;20072;-67
2021/12/27 11:24:01;;;;;;;125.63;30.97;;;;;;;;;;5031666;28;20402;-68
2021/12/27 11:26:29;;;;;;;119.15;32.05;;;;;;;;;;5031784;28;20287;-68
2021/12/27 11:29:15;;;;;;;116.97;33.42;;;;;;;;;;5029027;28;20066;-68
2021/12/27 11:31:42;;;;;;;123.72;31.13;;;;;;;;;;5002667;28;20050;-68
2021/12/27 11:34:12;;;;;;;108.95;30.13;;;;;;;;;;5011824;28;20567;-68
2021/12/27 11:36:39;;;;;;;111.25;31.75;;;;;;;;;;5011872;28;20044;-67
2021/12/27 11:39:17;;;;;;;136.27;33.00;;;;;;;;;;5007763;28;20085;-68
2021/12/27 11:41:43;;;;;;;120.97;32.90;;;;;;;;;;5012075;28;20124;-68
2021/12/27 11:44:17;;;;;;;120.07;30.08;;;;;;;;;;5012251;28;20504;-68
2021/12/27 11:46:49;;;;;;;135.10;33.08;;;;;;;;;;5012212;28;20562;-67
2021/12/27 11:49:16;;;;;;;126.22;32.92;;;;;;;;;;4991820;28;20049;-67
2021/12/27 11:51:43;;;;;;;137.18;33.13;;;;;;;;;;4992165;28;20042;-67
2021/12/27 11:54:27;;;;;;;125.85;33.65;;;;;;;;;;4993310;28;20042;-67
2021/12/27 11:56:54;;;;;;;137.35;31.75;;;;;;;;;;5000501;28;20092;-67
2021/12/27 11:59:23;;;;;;;124.00;32.35;;;;;;;;;;5024375;28;20064;-68
2021/12/27 12:01:50;;;;;;;134.93;32.88;;;;;;;;;;5018438;28;20041;-68
2021/12/27 12:04:34;;;;;;;140.82;33.33;;;;;;;;;;5018354;28;20567;-68
2021/12/27 12:07:01;;;;;;;132.40;33.33;;;;;;;;;;5017983;28;20125;-68
2021/12/27 12:09:27;;;;;;;141.13;33.75;;;;;;;;;;5037092;28;20517;-67
2021/12/27 12:12:06;;;;;;;123.43;32.60;;;;;;;;;;5038149;28;20033;-68
2021/12/27 12:14:36;;;;;;;109.70;30.83;;;;;;;;;;4998527;28;20042;-68
2021/12/27 12:17:03;;;;;;;116.53;31.77;;;;;;;;;;5006979;28;20030;-68
2021/12/27 12:19:38;;;;;;;118.95;32.47;;;;;;;;;;5018074;28;20052;-68
2021/12/27 12:22:05;;;;;;;126.05;32.00;;;;;;;;;;5018510;28;20160;-68
2021/12/27 12:24:31;;;;;;;107.35;30.27;;;;;;;;;;5018215;28;20089;-68
2021/12/27 12:26:57;;;;;;;106.22;31.92;;;;;;;;;;5017875;28;20049;-68
2021/12/27 12:29:23;;;;;;;102.32;29.65;;;;;;;;;;5036242;28;20048;-67
2021/12/27 12:31:54;;;;;;;99.38;31.52;;;;;;;;;;5037673;28;20033;-67
2021/12/27 12:34:20;;;;;;;89.43;28.50;;;;;;;;;;5020039;28;20476;-68
2021/12/27 12:36:46;;;;;;;91.22;28.98;;;;;;;;;;5037872;28;20276;-68
2021/12/27 12:39:12;;;;;;;77.78;28.88;;;;;;;;;;5019862;28;20411;-67
2021/12/27 12:41:38;;;;;;;89.60;28.52;;;;;;;;;;5017880;28;20093;-68
2021/12/27 12:44:04;;;;;;;77.90;27.67;;;;;;;;;;5018025;28;20041;-67
2021/12/27 12:46:42;;;;;;;79.63;26.55;;;;;;;;;;5017659;28;20042;-68
2021/12/27 12:49:15;;;;;;;78.45;27.27;;;;;;;;;;5033747;28;20046;-68
2021/12/27 12:51:44;;;;;;;77.72;27.55;;;;;;;;;;5037485;28;20403;-68
2021/12/27 12:54:24;;;;;;;74.07;25.60;;;;;;;;;;5033083;28;20105;-68
2021/12/27 12:56:51;;;;;;;65.33;23.47;;;;;;;;;;5017861;28;20040;-67
2021/12/27 12:59:25;;;;;;;70.10;24.98;;;;;;;;;;5018028;28;20650;-68
2021/12/27 13:02:01;;;;;;;76.95;25.30;;;;;;;;;;5018045;28;20084;-68
2021/12/27 13:04:40;;;;;;;71.47;25.35;;;;;;;;;;5017839;28;20479;-68
2021/12/27 13:07:06;;;;;;;64.32;22.08;;;;;;;;;;5014385;28;20474;-68
2021/12/27 13:09:48;;;;;;;68.68;23.67;;;;;;;;;;5023633;28;20099;-68
2021/12/27 13:12:15;;;;;;;61.95;22.50;;;;;;;;;;5014809;28;20037;-68
2021/12/27 13:14:41;;;;;;;68.03;22.40;;;;;;;;;;5011880;28;20046;-68
2021/12/27 13:17:18;;;;;;;58.15;23.23;;;;;;;;;;5014751;28;20065;-68
2021/12/27 13:20:05;;;;;;;55.47;22.63;;;;;;;;;;4994851;28;20046;-68
2021/12/27 13:22:46;;;;;;;53.90;22.23;;;;;;;;;;4995162;28;20038;-68
2021/12/27 13:25:14;;;;;;;56.20;22.05;;;;;;;;;;5012008;28;20095;-68
2021/12/27 13:27:42;;;;;;;62.85;23.42;;;;;;;;;;5014290;28;20045;-68
2021/12/27 13:30:09;;;;;;;57.03;21.30;;;;;;;;;;5014225;28;20037;-68
2021/12/27 13:32:36;;;;;;;54.97;21.65;;;;;;;;;;5014018;28;20034;-68
2021/12/27 13:35:03;;;;;;;50.28;21.08;;;;;;;;;;5019830;28;20038;-68
2021/12/27 13:37:29;;;;;;;53.90;22.23;;;;;;;;;;5033960;28;20037;-68
2021/12/27 13:40:05;;;;;;;55.33;22.33;;;;;;;;;;5026274;28;20507;-68
2021/12/27 13:42:31;;;;;;;49.92;20.45;;;;;;;;;;5014133;28;20045;-67
2021/12/27 13:45:07;;;;;;;50.97;21.48;;;;;;;;;;5013784;28;20296;-68
2021/12/27 13:47:33;;;;;;;53.65;21.33;;;;;;;;;;5014195;28;20041;-68
2021/12/27 13:49:59;;;;;;;58.33;21.95;;;;;;;;;;5010259;28;20030;-68
2021/12/27 13:52:25;;;;;;;47.75;22.58;;;;;;;;;;5012240;28;20038;-68
2021/12/27 13:54:53;;;;;;;54.85;22.67;;;;;;;;;;5013248;28;20047;-68
2021/12/27 13:57:19;;;;;;;49.72;23.48;;;;;;;;;;4994679;28;20080;-67
2021/12/27 13:59:48;;;;;;;58.38;23.65;;;;;;;;;;5011459;28;20533;-67
2021/12/27 14:02:14;;;;;;;60.47;27.13;;;;;;;;;;5012015;28;20107;-67
2021/12/27 14:04:40;;;;;;;58.70;27.80;;;;;;;;;;5014610;28;20096;-67
2021/12/27 14:07:08;;;;;;;49.25;23.38;;;;;;;;;;5013212;28;20045;-68
2021/12/27 14:09:36;;;;;;;50.05;21.70;;;;;;;;;;5012278;28;20092;-67
2021/12/27 14:12:04;;;;;;;55.97;21.92;;;;;;;;;;5012878;28;20435;-68
2021/12/27 14:14:44;;;;;;;51.60;21.08;;;;;;;;;;5010997;28;20487;-67
2021/12/27 14:17:14;;;;;;;53.13;21.67;;;;;;;;;;5012261;28;20112;-67
2021/12/27 14:19:41;;;;;;;52.15;20.75;;;;;;;;;;5013338;28;20038;-67